createdAt,value
2016-05-11T00:00:53.793Z,62.87
2016-05-11T00:01:53.811Z,63.45
2016-05-11T00:03:53.864Z,63.45
2016-05-11T00:04:53.913Z,63.54
2016-05-11T00:06:53.919Z,63.45
2016-05-11T00:07:53.952Z,63.54
2016-05-11T00:10:54.022Z,63.54
2016-05-11T00:11:54.042Z,63.54
2016-05-11T00:12:54.060Z,63.64
2016-05-11T00:13:54.077Z,63.93
2016-05-11T00:15:08.284Z,63.45
2016-05-11T00:15:54.130Z,64.22
2016-05-11T00:16:54.149Z,63.83
2016-05-11T00:18:54.201Z,63.54
2016-05-11T00:19:54.219Z,63.83
2016-05-11T00:20:54.237Z,63.64
2016-05-11T00:21:54.256Z,63.73
2016-05-11T00:22:54.290Z,63.54
2016-05-11T00:23:54.151Z,63.35
2016-05-11T00:24:54.327Z,63.54
2016-05-11T00:26:54.379Z,63.64
2016-05-11T00:27:54.398Z,63.64
2016-05-11T00:28:54.415Z,63.45
2016-05-11T00:29:54.278Z,63.54
2016-05-11T00:31:08.639Z,63.64
2016-05-11T00:31:54.486Z,63.83
2016-05-11T00:32:54.504Z,63.93
2016-05-11T00:33:54.523Z,64.12
2016-05-11T00:34:54.556Z,64.12
2016-05-11T00:35:54.575Z,63.93
2016-05-11T00:36:54.593Z,64.02
2016-05-11T00:37:54.627Z,64.12
2016-05-11T00:38:54.630Z,63.93
2016-05-11T00:39:54.664Z,63.83
2016-05-11T00:40:54.697Z,64.02
2016-05-11T00:41:54.544Z,64.02
2016-05-11T00:42:54.733Z,64.12
2016-05-11T00:43:54.753Z,64.18
2016-05-11T00:44:54.849Z,64.5
2016-05-11T00:46:08.977Z,64.88
2016-05-11T00:46:54.824Z,64.75
2016-05-11T00:47:54.841Z,64.75
2016-05-11T00:48:54.860Z,64.28
2016-05-11T00:49:54.878Z,64.75
2016-05-11T00:50:54.912Z,64.5
2016-05-11T00:51:54.930Z,64.78
2016-05-11T00:52:54.948Z,64.4
2016-05-11T00:53:54.982Z,64.4
2016-05-11T00:54:55.001Z,65.33
2016-05-11T00:56:55.037Z,64.59
2016-05-11T00:57:55.087Z,64.98
2016-05-11T00:58:55.090Z,64.94
2016-05-11T00:59:55.404Z,64.88
2016-05-11T01:00:55.126Z,65.33
2016-05-11T01:01:55.144Z,65.33
2016-05-11T01:02:55.178Z,65.33
2016-05-11T01:03:55.197Z,65.52
2016-05-11T01:04:55.215Z,65.52
2016-05-11T01:05:55.234Z,65.9
2016-05-11T01:06:55.111Z,65.9
2016-05-11T01:07:55.286Z,65.71
2016-05-11T01:08:55.303Z,66.09
2016-05-11T01:09:55.322Z,66.38
2016-05-11T01:10:55.356Z,66.56
2016-05-11T01:11:55.375Z,66.95
2016-05-11T01:12:55.394Z,67.43
2016-05-11T01:13:55.255Z,67.62
2016-05-11T01:14:56.039Z,67.52
2016-05-11T01:15:55.463Z,67.43
2016-05-11T01:16:55.483Z,67.14
2016-05-11T01:18:09.687Z,67.14
2016-05-11T01:18:55.534Z,67.14
2016-05-11T01:19:55.552Z,67.14
2016-05-11T01:20:55.571Z,66.76
2016-05-11T01:21:55.589Z,66.85
2016-05-11T01:23:55.641Z,67.62
2016-05-11T01:24:55.659Z,67.33
2016-05-11T01:25:55.679Z,67.81
2016-05-11T01:27:55.730Z,68.54
2016-05-11T01:28:55.593Z,68.73
2016-05-11T01:29:55.626Z,69.4
2016-05-11T01:30:55.800Z,69.02
2016-05-11T01:31:55.819Z,69.11
2016-05-11T01:32:55.838Z,68.44
2016-05-11T01:34:10.043Z,69.05
2016-05-11T01:34:55.874Z,68.44
2016-05-11T01:35:55.908Z,68.92
2016-05-11T01:36:55.926Z,68.73
2016-05-11T01:37:55.944Z,69.4
2016-05-11T01:38:55.979Z,69.11
2016-05-11T01:39:55.981Z,69.68
2016-05-11T01:40:56.014Z,70.45
2016-05-11T01:41:56.034Z,70.07
2016-05-11T01:43:56.086Z,70.92
2016-05-11T01:44:56.105Z,70.36
2016-05-11T01:45:56.732Z,70.73
2016-05-11T01:46:55.984Z,70.83
2016-05-11T01:47:56.158Z,70.92
2016-05-11T01:48:56.194Z,71.41
2016-05-11T01:50:10.383Z,71.66
2016-05-11T01:50:56.230Z,71.66
2016-05-11T01:51:56.248Z,72.23
2016-05-11T01:52:56.282Z,71.27
2016-05-11T01:53:56.300Z,71.56
2016-05-11T01:54:56.334Z,71.41
2016-05-11T01:55:56.352Z,71.12
2016-05-11T01:56:56.371Z,71.12
2016-05-11T01:57:56.390Z,71.31
2016-05-11T01:58:56.407Z,71.12
2016-05-11T01:59:56.441Z,71.59
2016-05-11T02:00:56.553Z,71.59
2016-05-11T02:01:56.478Z,72.03
2016-05-11T02:02:56.495Z,71.66
2016-05-11T02:03:56.531Z,71.56
2016-05-11T02:04:56.549Z,70.92
2016-05-11T02:06:10.739Z,71.84
2016-05-11T02:06:56.584Z,71.46
2016-05-11T02:07:56.447Z,71.46
2016-05-11T02:08:56.622Z,71.56
2016-05-11T02:09:56.655Z,71.75
2016-05-11T02:10:56.502Z,72.03
2016-05-11T02:11:56.708Z,72.32
2016-05-11T02:12:56.726Z,72.32
2016-05-11T02:13:56.744Z,72.42
2016-05-11T02:14:56.763Z,72.51
2016-05-11T02:15:56.625Z,72.61
2016-05-11T02:16:56.800Z,72.42
2016-05-11T02:17:56.818Z,73.08
2016-05-11T02:18:56.836Z,72.61
2016-05-11T02:19:56.870Z,72.61
2016-05-11T02:21:11.060Z,72.71
2016-05-11T02:21:56.907Z,72.99
2016-05-11T02:22:56.925Z,73.08
2016-05-11T02:23:56.943Z,72.42
2016-05-11T02:24:56.977Z,72.99
2016-05-11T02:25:56.995Z,72.8
2016-05-11T02:26:57.029Z,72.71
2016-05-11T02:27:57.032Z,72.8
2016-05-11T02:28:57.051Z,72.61
2016-05-11T02:30:57.149Z,72.8
2016-05-11T02:31:57.121Z,71.84
2016-05-11T02:32:57.155Z,72.23
2016-05-11T02:33:57.157Z,71.84
2016-05-11T02:34:57.192Z,71.66
2016-05-11T02:35:57.053Z,71.75
2016-05-11T02:36:57.228Z,71.94
2016-05-11T02:37:57.090Z,71.37
2016-05-11T02:38:57.265Z,71.75
2016-05-11T02:39:57.299Z,71.46
2016-05-11T02:40:57.333Z,71.94
2016-05-11T02:41:57.336Z,72.51
2016-05-11T02:42:57.353Z,72.42
2016-05-11T02:43:57.388Z,72.13
2016-05-11T02:44:57.405Z,72.99
2016-05-11T02:45:57.269Z,73.08
2016-05-11T02:46:57.442Z,73.56
2016-05-11T02:48:57.495Z,74.48
2016-05-11T02:49:57.529Z,74.19
2016-05-11T02:50:57.532Z,74.38
2016-05-11T02:51:57.566Z,74.19
2016-05-11T02:53:11.755Z,75.24
2016-05-11T02:53:57.586Z,75.24
2016-05-11T02:54:57.621Z,75.05
2016-05-11T02:55:57.638Z,75.62
2016-05-11T02:56:57.657Z,75.05
2016-05-11T02:57:57.690Z,75.24
2016-05-11T02:58:57.710Z,75.15
2016-05-11T02:59:57.728Z,76.1
2016-05-11T03:00:57.590Z,75.43
2016-05-11T03:01:57.764Z,75.05
2016-05-11T03:02:57.798Z,75.62
2016-05-11T03:03:57.816Z,75.53
2016-05-11T03:04:57.850Z,75.53
2016-05-11T03:05:57.854Z,75.34
2016-05-11T03:06:57.731Z,75.53
2016-05-11T03:07:57.906Z,74.77
2016-05-11T03:09:12.095Z,75.15
2016-05-11T03:09:57.942Z,74.96
2016-05-11T03:10:57.975Z,74.77
2016-05-11T03:11:57.978Z,74.57
2016-05-11T03:12:57.841Z,75.62
2016-05-11T03:13:58.031Z,74.86
2016-05-11T03:14:58.049Z,75.24
2016-05-11T03:15:57.927Z,75.24
2016-05-11T03:17:58.120Z,74.86
2016-05-11T03:18:58.138Z,74.86
2016-05-11T03:19:58.156Z,74.52
2016-05-11T03:20:58.033Z,75.09
2016-05-11T03:21:58.036Z,75.28
2016-05-11T03:22:58.227Z,74.96
2016-05-11T03:23:58.245Z,75.72
2016-05-11T03:25:12.436Z,75.15
2016-05-11T03:25:58.282Z,75.24
2016-05-11T03:26:58.144Z,74.52
2016-05-11T03:27:58.178Z,75.18
2016-05-11T03:28:58.352Z,74.9
2016-05-11T03:29:58.370Z,74.8
2016-05-11T03:30:58.411Z,74.96
2016-05-11T03:33:58.444Z,75.28
2016-05-11T03:34:58.643Z,75.47
2016-05-11T03:35:58.696Z,75.34
2016-05-11T03:36:58.745Z,75.53
2016-05-11T03:37:58.777Z,75.91
2016-05-11T03:38:58.810Z,75.91
2016-05-11T03:39:58.842Z,75.53
2016-05-11T03:41:13.061Z,75.81
2016-05-11T03:41:58.897Z,76.48
2016-05-11T03:42:58.935Z,76.48
2016-05-11T03:43:58.959Z,75.24
2016-05-11T03:44:58.982Z,74.71
2016-05-11T03:45:59.005Z,74.61
2016-05-11T03:46:59.025Z,74.9
2016-05-11T03:47:59.061Z,75.18
2016-05-11T03:49:59.101Z,74.8
2016-05-11T03:50:58.965Z,74.99
2016-05-11T03:51:59.155Z,74.9
2016-05-11T03:52:59.018Z,75.47
2016-05-11T03:53:59.193Z,75.66
2016-05-11T03:54:59.212Z,74.99
2016-05-11T03:56:13.418Z,74.42
2016-05-11T03:56:59.265Z,75.09
2016-05-11T03:57:59.283Z,75.37
2016-05-11T03:58:59.302Z,75.09
2016-05-11T03:59:59.164Z,74.8
2016-05-11T04:01:59.373Z,75.09
2016-05-11T04:02:59.392Z,74.71
2016-05-11T04:03:59.411Z,74.32
2016-05-11T04:06:59.480Z,73.94
2016-05-11T04:07:59.500Z,74.04
2016-05-11T04:08:59.517Z,73.85
2016-05-11T04:09:59.380Z,73.47
2016-05-11T04:10:59.569Z,73.37
2016-05-11T04:11:59.587Z,73.56
2016-05-11T04:12:59.605Z,73.69
2016-05-11T04:13:59.625Z,73.41
2016-05-11T04:14:59.658Z,73.88
2016-05-11T04:15:59.677Z,72.83
2016-05-11T04:16:59.695Z,72.74
2016-05-11T04:17:59.713Z,72.36
2016-05-11T04:18:59.732Z,72.83
2016-05-11T04:19:59.609Z,72.64
2016-05-11T04:20:59.784Z,71.98
2016-05-11T04:21:59.818Z,71.98
2016-05-11T04:22:59.836Z,71.69
2016-05-11T04:23:59.854Z,71.92
2016-05-11T04:24:59.873Z,71.25
2016-05-11T04:25:59.891Z,70.58
2016-05-11T04:26:59.910Z,70.87
2016-05-11T04:28:14.115Z,71.15
2016-05-11T04:28:59.946Z,70.58
2016-05-11T04:29:59.980Z,70.96
2016-05-11T04:30:59.998Z,70.58
2016-05-11T04:31:59.860Z,70.77
2016-05-11T04:32:59.895Z,70.96
2016-05-11T04:34:00.069Z,70.48
2016-05-11T04:35:00.086Z,70.48
2016-05-11T04:36:00.105Z,70.48
2016-05-11T04:37:00.139Z,69.91
2016-05-11T04:40:00.194Z,70.29
2016-05-11T04:41:00.228Z,70.1
2016-05-11T04:42:00.294Z,69.76
2016-05-11T04:43:00.265Z,69.18
2016-05-11T04:44:14.471Z,69.09
2016-05-11T04:45:00.317Z,69.47
2016-05-11T04:46:00.335Z,68.61
2016-05-11T04:47:00.354Z,68.9
2016-05-11T04:48:00.388Z,68.9
2016-05-11T04:49:00.406Z,67.49
2016-05-11T04:50:00.424Z,65.68
2016-05-11T04:51:00.443Z,63.93
2016-05-11T04:52:00.460Z,60.61
2016-05-11T04:53:00.495Z,57.6
2016-05-11T04:54:00.513Z,55.23
2016-05-11T04:55:00.531Z,53.72
2016-05-11T04:56:00.566Z,51.57
2016-05-11T04:57:00.598Z,50.34
2016-05-11T04:58:00.618Z,49.19
2016-05-11T04:59:00.651Z,47.22
2016-05-11T05:00:14.842Z,45.99
2016-05-11T05:01:00.688Z,45.17
2016-05-11T05:02:00.707Z,43.07
2016-05-11T05:03:00.725Z,42.49
2016-05-11T05:04:00.759Z,42.03
2016-05-11T05:05:00.778Z,43.27
2016-05-11T05:06:00.811Z,42.86
2016-05-11T05:08:00.847Z,42.21
2016-05-11T05:09:00.881Z,40.42
2016-05-11T05:10:00.916Z,39.94
2016-05-11T05:12:00.811Z,39.64
2016-05-11T05:13:00.986Z,38.79
2016-05-11T05:14:01.005Z,37.95
2016-05-11T05:15:01.366Z,37.93
2016-05-11T05:16:15.244Z,37.46
2016-05-11T05:17:01.091Z,37.56
2016-05-11T05:18:01.109Z,37.17
2016-05-11T05:19:01.815Z,36.22
2016-05-11T05:20:01.177Z,35.18
2016-05-11T05:21:01.195Z,34.52
2016-05-11T05:22:01.229Z,34.05
2016-05-11T05:23:01.107Z,33.76
2016-05-11T05:24:01.312Z,32.44
2016-05-11T05:25:01.300Z,32.71
2016-05-11T05:26:01.395Z,32.42
2016-05-11T05:27:01.368Z,33.86
2016-05-11T05:28:01.386Z,33.18
2016-05-11T05:29:01.420Z,32.71
2016-05-11T05:30:01.437Z,32.44
2016-05-11T05:31:15.660Z,32.52
2016-05-11T05:32:01.506Z,32.91
2016-05-11T05:33:01.525Z,32.91
2016-05-11T05:34:01.559Z,32.42
2016-05-11T05:35:01.592Z,31.01
2016-05-11T05:36:01.611Z,31.59
2016-05-11T05:37:01.488Z,30.71
2016-05-11T05:39:01.712Z,29.38
2016-05-11T05:40:01.762Z,29.88
2016-05-11T05:41:01.764Z,29.58
2016-05-11T05:42:01.799Z,28.34
2016-05-11T05:43:01.817Z,27.31
2016-05-11T05:44:01.866Z,26.64
2016-05-11T05:45:01.869Z,26.55
2016-05-11T05:46:02.028Z,27.01
2016-05-11T05:47:01.937Z,26.33
2016-05-11T05:48:01.971Z,25.78
2016-05-11T05:49:02.005Z,24.63
2016-05-11T05:51:02.057Z,23.58
2016-05-11T05:52:02.091Z,25.03
2016-05-11T05:53:02.124Z,25.59
2016-05-11T05:54:02.143Z,25.01
2016-05-11T05:55:02.177Z,24.24
2016-05-11T05:57:02.089Z,25.01
2016-05-11T05:59:02.312Z,24.24
2016-05-11T06:00:02.331Z,24.52
2016-05-11T06:01:02.225Z,23.85
2016-05-11T06:02:02.398Z,24.06
2016-05-11T06:03:16.621Z,22.52
2016-05-11T06:04:02.467Z,22.24
2016-05-11T06:05:02.501Z,21.37
2016-05-11T06:06:02.378Z,21.97
2016-05-11T06:07:02.553Z,22.73
2016-05-11T06:08:02.587Z,21.75
2016-05-11T06:09:02.621Z,22.06
2016-05-11T06:11:02.689Z,20.06
2016-05-11T06:12:02.722Z,18.89
2016-05-11T06:14:02.791Z,19.48
2016-05-11T06:16:03.249Z,20.82
2016-05-11T06:17:02.893Z,21.97
2016-05-11T06:18:02.927Z,21.94
2016-05-11T06:19:17.132Z,22.46
2016-05-11T06:20:04.245Z,24.26
2016-05-11T06:21:06.449Z,26.06
2016-05-11T06:22:08.640Z,25.27
2016-05-11T06:23:02.972Z,23.1
2016-05-11T06:24:08.912Z,22.05
2016-05-11T06:25:05.617Z,20.42
2016-05-11T06:26:03.198Z,19.56
2016-05-11T06:27:06.935Z,18.89
2016-05-11T06:28:03.438Z,17.93
2016-05-11T06:29:04.707Z,17.85
2016-05-11T06:30:03.318Z,17.86
2016-05-11T06:31:03.352Z,19.57
2016-05-11T06:32:03.386Z,21.09
2016-05-11T06:33:03.421Z,22.44
2016-05-11T06:34:03.454Z,23.47
2016-05-11T06:35:17.660Z,25.69
2016-05-11T06:36:03.523Z,24.04
2016-05-11T06:37:03.400Z,21.84
2016-05-11T06:38:03.590Z,20.42
2016-05-11T06:39:03.608Z,20.53
2016-05-11T06:40:03.642Z,22.25
2016-05-11T06:41:03.676Z,21.84
2016-05-11T06:42:03.725Z,20.12
2016-05-11T06:43:03.603Z,19.09
2016-05-11T06:44:03.793Z,17.84
2016-05-11T06:45:03.827Z,17.36
2016-05-11T06:46:03.862Z,17.77
2016-05-11T06:48:03.930Z,17.09
2016-05-11T06:49:03.963Z,16.88
2016-05-11T06:50:03.997Z,16.11
2016-05-11T06:51:18.203Z,16.58
2016-05-11T06:52:04.080Z,17.07
2016-05-11T06:53:04.099Z,15.9
2016-05-11T06:54:03.977Z,14.84
2016-05-11T06:55:04.010Z,15.52
2016-05-11T06:56:04.201Z,15.12
2016-05-11T06:57:04.251Z,16.11
2016-05-11T06:58:04.268Z,18.5
2016-05-11T06:59:04.302Z,18.27
2016-05-11T07:00:04.337Z,19.73
2016-05-11T07:01:08.824Z,18.27
2016-05-11T07:03:04.437Z,18.29
2016-05-11T07:04:04.473Z,17.04
2016-05-11T07:05:04.351Z,16.28
2016-05-11T07:06:18.728Z,17.16
2016-05-11T07:07:04.418Z,16.08
2016-05-11T07:08:04.467Z,15.12
2016-05-11T07:09:04.642Z,14.25
2016-05-11T07:10:04.692Z,14.94
2016-05-11T07:11:04.725Z,15.33
2016-05-11T07:12:04.744Z,15.03
2016-05-11T07:13:04.793Z,15.31
2016-05-11T07:16:04.895Z,13.48
2016-05-11T07:18:04.963Z,12.32
2016-05-11T07:19:04.997Z,13.2
2016-05-11T07:20:05.030Z,13.37
2016-05-11T07:21:05.080Z,14.35
2016-05-11T07:22:05.099Z,13.28
2016-05-11T07:23:05.148Z,13.39
2016-05-11T07:24:05.010Z,13.49
2016-05-11T07:25:05.216Z,15.61
2016-05-11T07:26:05.249Z,15.4
2016-05-11T07:27:05.285Z,13.46
2016-05-11T07:28:05.319Z,13.08
2016-05-11T07:30:05.385Z,12.61
2016-05-11T07:31:05.295Z,12.32
2016-05-11T07:32:05.298Z,13.9
2016-05-11T07:33:05.487Z,14.62
2016-05-11T07:34:05.537Z,14.43
2016-05-11T07:35:05.571Z,13.18
2016-05-11T07:36:05.606Z,12.02
2016-05-11T07:37:05.639Z,11.84
2016-05-11T07:38:19.861Z,10.08
2016-05-11T07:39:05.707Z,10.18
2016-05-11T07:40:05.585Z,10.75
2016-05-11T07:41:05.790Z,10.07
2016-05-11T07:42:05.653Z,10.28
2016-05-11T07:43:05.859Z,10.28
2016-05-11T07:44:05.892Z,9.79
2016-05-11T07:45:05.926Z,10.46
2016-05-11T07:46:07.211Z,10.47
2016-05-11T07:47:05.995Z,9.98
2016-05-11T07:48:06.028Z,10.36
2016-05-11T07:49:06.078Z,10.67
2016-05-11T07:50:06.143Z,11.63
2016-05-11T07:51:05.989Z,11.63
2016-05-11T07:52:06.194Z,12.79
2016-05-11T07:53:06.229Z,12.3
2016-05-11T07:54:20.436Z,10.06
2016-05-11T07:55:06.297Z,9.5
2016-05-11T07:56:06.331Z,9.21
2016-05-11T07:57:06.365Z,8.42
2016-05-11T07:58:06.398Z,8.92
2016-05-11T07:59:06.433Z,10.19
2016-05-11T08:00:06.467Z,11.57
2016-05-11T08:01:06.516Z,12.04
2016-05-11T08:02:06.551Z,10.85
2016-05-11T08:03:06.631Z,10.08
2016-05-11T08:04:06.618Z,10.18
2016-05-11T08:05:06.496Z,10.08
2016-05-11T08:06:06.702Z,10.66
2016-05-11T08:07:06.735Z,10.85
2016-05-11T08:08:06.770Z,10.56
2016-05-11T08:09:06.803Z,9.77
2016-05-11T08:10:21.025Z,10.16
2016-05-11T08:11:06.871Z,10.76
2016-05-11T08:12:06.921Z,11.43
2016-05-11T08:13:06.955Z,10.74
2016-05-11T08:14:06.989Z,11.05
2016-05-11T08:15:07.039Z,10.85
2016-05-11T08:16:07.384Z,10.95
2016-05-11T08:17:07.106Z,10.97
2016-05-11T08:18:07.140Z,11.63
2016-05-11T08:19:07.189Z,11.44
2016-05-11T08:20:07.052Z,11.54
2016-05-11T08:21:07.258Z,11.73
2016-05-11T08:22:07.291Z,12.22
2016-05-11T08:23:07.153Z,12.71
2016-05-11T08:24:07.360Z,13.18
2016-05-11T08:25:07.394Z,12.6
2016-05-11T08:26:21.615Z,11.24
2016-05-11T08:27:07.461Z,11.35
2016-05-11T08:28:07.496Z,11.06
2016-05-11T08:29:07.388Z,10.86
2016-05-11T08:30:07.422Z,10.86
2016-05-11T08:31:07.566Z,11.56
2016-05-11T08:32:07.646Z,13.41
2016-05-11T08:33:07.680Z,13.37
2016-05-11T08:34:07.730Z,13.09
2016-05-11T08:35:07.607Z,11.63
2016-05-11T08:36:07.798Z,10.85
2016-05-11T08:37:07.832Z,10.97
2016-05-11T08:38:07.881Z,10.68
2016-05-11T08:39:07.900Z,10.47
2016-05-11T08:40:07.949Z,11.57
2016-05-11T08:41:22.171Z,11.26
2016-05-11T08:42:08.017Z,11.25
2016-05-11T08:43:07.895Z,10.76
2016-05-11T08:44:07.960Z,10.78
2016-05-11T08:45:08.134Z,11.65
2016-05-11T08:47:08.203Z,10.67
2016-05-11T08:48:08.236Z,10.87
2016-05-11T08:50:08.164Z,11.36
2016-05-11T08:51:08.197Z,11.35
2016-05-11T08:52:08.388Z,12.33
2016-05-11T08:53:08.422Z,12.63
2016-05-11T08:54:08.455Z,11.74
2016-05-11T08:55:08.349Z,11.84
2016-05-11T08:56:08.383Z,11.94
2016-05-11T08:57:08.574Z,13.4
2016-05-11T08:58:08.607Z,13.08
2016-05-11T08:59:08.657Z,13.59
2016-05-11T09:00:08.691Z,13.46
2016-05-11T09:01:08.568Z,14.15
2016-05-11T09:02:08.758Z,13.57
2016-05-11T09:03:08.793Z,12.49
2016-05-11T09:04:08.671Z,11.82
2016-05-11T09:05:08.876Z,12.04
2016-05-11T09:06:08.909Z,11.15
2016-05-11T09:07:08.944Z,11.16
2016-05-11T09:08:08.978Z,10.96
2016-05-11T09:09:09.011Z,10.17
2016-05-11T09:10:09.046Z,10.08
2016-05-11T09:11:09.095Z,10.2
2016-05-11T09:12:09.129Z,10.79
2016-05-11T09:13:23.351Z,11.15
2016-05-11T09:14:09.197Z,11.25
2016-05-11T09:15:09.075Z,11.55
2016-05-11T09:16:09.280Z,12.12
2016-05-11T09:18:09.364Z,11.35
2016-05-11T09:19:09.382Z,10.96
2016-05-11T09:20:09.417Z,10.47
2016-05-11T09:21:09.450Z,9.59
2016-05-11T09:22:09.484Z,8.62
2016-05-11T09:23:09.534Z,10.2
2016-05-11T09:24:09.567Z,9.59
2016-05-11T09:25:09.445Z,9.2
2016-05-11T09:26:09.636Z,10
2016-05-11T09:27:09.513Z,9.89
2016-05-11T09:28:09.703Z,9.59
2016-05-11T09:29:23.925Z,9.11
2016-05-11T09:30:09.865Z,10.2
2016-05-11T09:31:09.836Z,10.86
2016-05-11T09:32:09.855Z,11.44
2016-05-11T09:33:09.904Z,11.34
2016-05-11T09:34:09.938Z,12.62
2016-05-11T09:35:09.972Z,12.79
2016-05-11T09:37:10.040Z,13.28
2016-05-11T09:38:10.089Z,13.28
2016-05-11T09:39:10.108Z,13.56
2016-05-11T09:40:10.158Z,13.48
2016-05-11T09:41:10.192Z,12.89
2016-05-11T09:42:10.241Z,12.4
2016-05-11T09:43:10.259Z,11.63
2016-05-11T09:44:10.309Z,13.6
2016-05-11T09:45:24.639Z,13.36
2016-05-11T09:46:10.220Z,12.59
2016-05-11T09:47:10.411Z,11.53
2016-05-11T09:48:10.445Z,11.74
2016-05-11T09:49:10.478Z,11.16
2016-05-11T09:50:10.528Z,11.47
2016-05-11T09:51:10.562Z,12.13
2016-05-11T09:52:10.597Z,12.03
2016-05-11T09:53:10.474Z,12.23
2016-05-11T09:55:10.697Z,10.96
2016-05-11T09:56:10.747Z,10.86
2016-05-11T09:57:10.781Z,10.48
2016-05-11T09:58:10.831Z,10.46
2016-05-11T09:59:10.849Z,10.17
2016-05-11T10:00:10.883Z,9.49
2016-05-11T10:01:25.104Z,9.58
2016-05-11T10:02:10.951Z,9.3
2016-05-11T10:03:10.985Z,10.86
2016-05-11T10:04:11.034Z,11.93
2016-05-11T10:05:10.913Z,14.54
2016-05-11T10:06:11.118Z,16.55
2016-05-11T10:07:11.152Z,17.9
2016-05-11T10:08:11.015Z,19.43
2016-05-11T10:09:11.220Z,20.48
2016-05-11T10:10:11.254Z,20.66
2016-05-11T10:11:11.288Z,20.56
2016-05-11T10:12:11.165Z,20.15
2016-05-11T10:13:11.356Z,18.15
2016-05-11T10:14:11.390Z,16.63
2016-05-11T10:15:11.423Z,17.04
2016-05-11T10:16:25.645Z,19.36
2016-05-11T10:17:11.492Z,20.87
2016-05-11T10:18:11.369Z,21.73
2016-05-11T10:19:11.404Z,22.31
2016-05-11T10:20:11.593Z,23.84
2016-05-11T10:21:11.628Z,23.93
2016-05-11T10:22:11.677Z,24.22
2016-05-11T10:23:11.538Z,20.84
2016-05-11T10:24:11.729Z,20.21
2016-05-11T10:25:11.841Z,20.98
2016-05-11T10:26:11.797Z,23.07
2016-05-11T10:27:11.831Z,23.63
2016-05-11T10:28:11.864Z,24.89
2016-05-11T10:29:11.899Z,23.72
2016-05-11T10:30:11.917Z,24.96
2016-05-11T10:31:11.810Z,26.38
2016-05-11T10:32:48.189Z,27.04
2016-05-11T10:33:47.691Z,26.63
2016-05-11T10:34:47.710Z,24.24
2016-05-11T10:35:47.774Z,24.65
2016-05-11T10:37:01.967Z,24.17
2016-05-11T10:37:47.810Z,25.23
2016-05-11T10:38:46.955Z,25.32
2016-05-11T10:39:47.910Z,25.13
2016-05-11T10:40:47.913Z,23.88
2016-05-11T10:41:47.932Z,23.33
2016-05-11T10:42:47.966Z,22.44
2016-05-11T10:43:48.015Z,19.18
2016-05-11T10:44:48.032Z,17.68
2016-05-11T10:45:48.723Z,15.36
2016-05-11T10:47:48.134Z,13.64
2016-05-11T10:49:48.203Z,13.17
2016-05-11T10:50:48.237Z,13.49
2016-05-11T10:52:02.461Z,17.07
2016-05-11T10:52:48.304Z,17.66
2016-05-11T10:53:48.339Z,16.51
2016-05-11T10:54:48.373Z,15.66
2016-05-11T10:55:48.406Z,15.57
2016-05-11T10:56:48.440Z,15.19
2016-05-11T10:57:48.474Z,16.45
2016-05-11T10:58:48.508Z,18.57
2016-05-11T10:59:48.542Z,20.3
2016-05-11T11:00:48.420Z,22.31
2016-05-11T11:01:48.610Z,23.25
2016-05-11T11:03:48.678Z,24.58
2016-05-11T11:04:48.712Z,25.15
2016-05-11T11:05:48.589Z,26.31
2016-05-11T11:06:48.780Z,24.96
2016-05-11T11:07:48.814Z,24.21
2016-05-11T11:08:48.863Z,24.96
2016-05-11T11:09:48.882Z,25.14
2016-05-11T11:10:48.915Z,25.63
2016-05-11T11:11:48.935Z,25.24
2016-05-11T11:12:48.812Z,25.63
2016-05-11T11:13:49.017Z,25.82
2016-05-11T11:14:49.052Z,25.73
2016-05-11T11:17:49.137Z,26.31
2016-05-11T11:18:49.172Z,25.63
2016-05-11T11:19:49.206Z,26.4
2016-05-11T11:20:49.239Z,25.92
2016-05-11T11:21:49.274Z,26.09
2016-05-11T11:22:49.307Z,27.25
2016-05-11T11:24:03.515Z,28.3
2016-05-11T11:24:49.375Z,28.29
2016-05-11T11:25:49.393Z,28.29
2016-05-11T11:26:49.428Z,28.29
2016-05-11T11:27:49.305Z,28.58
2016-05-11T11:28:49.495Z,28.3
2016-05-11T11:29:49.529Z,27.72
2016-05-11T11:30:49.547Z,28.22
2016-05-11T11:31:49.581Z,27.06
2016-05-11T11:32:49.631Z,25.71
2016-05-11T11:34:49.683Z,25.84
2016-05-11T11:35:49.717Z,26.5
2016-05-11T11:37:49.800Z,25.24
2016-05-11T11:38:49.835Z,25.42
2016-05-11T11:40:04.043Z,26.67
2016-05-11T11:40:49.887Z,27.24
2016-05-11T11:41:49.921Z,28.29
2016-05-11T11:42:49.955Z,27.53
2016-05-11T11:43:49.832Z,27.72
2016-05-11T11:44:50.023Z,28.02
2016-05-11T11:45:50.416Z,27.06
2016-05-11T11:46:50.091Z,27.35
2016-05-11T11:48:50.159Z,26.39
2016-05-11T11:49:50.052Z,25.62
2016-05-11T11:50:50.210Z,25.51
2016-05-11T11:52:50.295Z,26.18
2016-05-11T11:53:50.328Z,26.37
2016-05-11T11:54:50.362Z,25.78
2016-05-11T11:56:04.571Z,24.52
2016-05-11T11:56:50.415Z,24.44
2016-05-11T11:57:50.448Z,24.54
2016-05-11T11:58:50.481Z,24.16
2016-05-11T11:59:50.517Z,23.87
2016-05-11T12:00:50.551Z,24.06
2016-05-11T12:01:50.584Z,24.16
2016-05-11T12:02:50.617Z,23.77
2016-05-11T12:03:50.636Z,24.24
2016-05-11T12:04:50.670Z,24.44
2016-05-11T12:05:50.704Z,24.92
2016-05-11T12:06:50.738Z,24.83
2016-05-11T12:07:50.772Z,24.34
2016-05-11T12:08:50.806Z,24.83
2016-05-11T12:09:50.840Z,24.92
2016-05-11T12:10:50.874Z,25.21
2016-05-11T12:12:05.083Z,24.24
2016-05-11T12:12:50.770Z,24.44
2016-05-11T12:13:50.960Z,24.16
2016-05-11T12:14:50.994Z,24.16
2016-05-11T12:15:51.027Z,24.45
2016-05-11T12:16:51.062Z,25.03
2016-05-11T12:17:51.096Z,24.84
2016-05-11T12:18:51.114Z,24.74
2016-05-11T12:19:51.148Z,25.02
2016-05-11T12:20:51.182Z,25.1
2016-05-11T12:22:51.250Z,25.2
2016-05-11T12:23:51.268Z,25.49
2016-05-11T12:24:51.146Z,25.3
2016-05-11T12:25:51.336Z,24.83
2016-05-11T12:27:05.545Z,25.31
2016-05-11T12:27:51.389Z,25.1
2016-05-11T12:28:51.423Z,25.12
2016-05-11T12:29:51.456Z,24.91
2016-05-11T12:30:51.615Z,24.72
2016-05-11T12:31:51.508Z,24.63
2016-05-11T12:32:51.542Z,24.84
2016-05-11T12:34:51.594Z,23.69
2016-05-11T12:35:51.628Z,23.96
2016-05-11T12:36:51.663Z,23.77
2016-05-11T12:37:51.550Z,23.48
2016-05-11T12:38:51.803Z,23.87
2016-05-11T12:40:51.950Z,23.09
2016-05-11T12:41:52.031Z,22.99
2016-05-11T12:42:52.080Z,22.99
2016-05-11T12:43:52.131Z,23.37
2016-05-11T12:44:52.181Z,23.85
2016-05-11T12:45:52.233Z,24.72
2016-05-11T12:46:52.268Z,24.51
2016-05-11T12:47:52.312Z,24.61
2016-05-11T12:48:52.353Z,24.03
2016-05-11T12:49:52.737Z,24.13
2016-05-11T12:50:52.418Z,24.43
2016-05-11T12:51:52.458Z,23.94
2016-05-11T12:52:52.479Z,24.13
2016-05-11T12:54:52.535Z,22.72
2016-05-11T12:55:52.415Z,21.75
2016-05-11T12:56:52.608Z,20.97
2016-05-11T12:57:52.626Z,21.36
2016-05-11T12:59:06.853Z,21.08
2016-05-11T12:59:52.697Z,20.98
2016-05-11T13:00:52.732Z,20.78
2016-05-11T13:01:52.751Z,20.98
2016-05-11T13:02:52.785Z,20.68
2016-05-11T13:03:52.804Z,21.47
2016-05-11T13:04:52.682Z,21.75
2016-05-11T13:05:52.716Z,22.13
2016-05-11T13:06:52.906Z,22.52
2016-05-11T13:07:52.941Z,22.72
2016-05-11T13:08:52.958Z,23
2016-05-11T13:09:52.993Z,22.42
2016-05-11T13:10:52.855Z,23.19
2016-05-11T13:11:52.904Z,23.18
2016-05-11T13:12:53.079Z,23.86
2016-05-11T13:13:53.113Z,23.95
2016-05-11T13:15:07.321Z,24.24
2016-05-11T13:15:53.024Z,24.05
2016-05-11T13:16:53.183Z,24.05
2016-05-11T13:17:53.218Z,24.54
2016-05-11T13:18:53.095Z,23.66
2016-05-11T13:19:53.270Z,24.24
2016-05-11T13:20:53.304Z,25.02
2016-05-11T13:22:53.357Z,24.92
2016-05-11T13:23:53.390Z,24.92
2016-05-11T13:24:53.423Z,24.43
2016-05-11T13:25:53.458Z,24.62
2016-05-11T13:26:53.476Z,24.43
2016-05-11T13:27:53.509Z,24.04
2016-05-11T13:28:53.529Z,23.95
2016-05-11T13:29:53.562Z,23.75
2016-05-11T13:31:07.803Z,25.1
2016-05-11T13:31:53.615Z,24.73
2016-05-11T13:32:53.649Z,24.34
2016-05-11T13:33:53.683Z,24.62
2016-05-11T13:34:53.701Z,24.99
2016-05-11T13:35:53.734Z,25.19
2016-05-11T13:36:53.597Z,24.98
2016-05-11T13:37:53.786Z,24.88
2016-05-11T13:38:53.822Z,25.47
2016-05-11T13:39:53.855Z,25.65
2016-05-11T13:40:53.873Z,25.65
2016-05-11T13:41:53.750Z,25.74
2016-05-11T13:42:53.769Z,25.37
2016-05-11T13:43:53.960Z,25.76
2016-05-11T13:44:53.994Z,24.88
2016-05-11T13:45:54.262Z,24.69
2016-05-11T13:47:08.236Z,24.51
2016-05-11T13:47:54.064Z,24.61
2016-05-11T13:48:54.098Z,24.99
2016-05-11T13:49:54.116Z,25.09
2016-05-11T13:50:54.150Z,25.19
2016-05-11T13:51:54.185Z,24.41